Carnival Glory — 3FPS9 — position and weather

sailwx.info

Track history (hours):
 
Tides and Currents Weather Stations Pressure Air Temp Water Temp Dewpoint Dewpoint Depression Visibility Wind Speed Wind Dir Waves Ship Positions

Carnival Glory

Operator: Carnival Cruise Lines

Last reported at 2017-Mar-30 14:31 UTC. Time now 2017-Mar-30 14:36 UTC.
Position N 20°29' W 086°59'.

Type: Passenger vessel. MMSI: 357659000.

Date/timePositionNaut miles runAvg speedWind from/ knotsBaromVisibWave heightAir tempDewpointWater temp
2017-Mar-30 14:31N 20°29' W 086°59'0 0.0
2017-Mar-30 13:31N 20°29' W 086°59'0 0.0
2017-Mar-30 12:31N 20°29' W 086°59'0 0.0
2017-Mar-30 11:33N 20°29' W 086°59'3 2.9
2017-Mar-30 10:33N 20°29' W 087°02'209 8.2
2017-Mar-29 09:00N 17°06' W 087°54'346 9.9 090 / 201010.9 5.4 26.021.526.0
2017-Mar-27 22:00N 18°48' W 082°06'48 3.5 050 / 151012.9 5.4 24.019.426.0
2017-Mar-27 08:00N 19°36' W 082°00'35911.0 070 / 181012.9 5.4 25.018.826.0
2017-Mar-25 23:33N 25°16' W 079°59'1615.9
2017-Mar-25 22:33N 25°32' W 079°56'1413.8
2017-Mar-25 21:34N 25°44' W 080°03'7 6.9
2017-Mar-25 20:31N 25°47' W 080°10'0 0.0
2017-Mar-25 19:31N 25°47' W 080°10'0 0.0
2017-Mar-25 18:31N 25°47' W 080°10'0 0.0
2017-Mar-25 17:31N 25°47' W 080°10'0 0.0
2017-Mar-25 16:31N 25°47' W 080°10'0 0.0
2017-Mar-25 15:31N 25°47' W 080°10'0 0.0
2017-Mar-25 14:31N 25°47' W 080°10'0 0.0
2017-Mar-25 13:31N 25°47' W 080°10'0 0.0
2017-Mar-25 12:31N 25°47' W 080°10'0 0.0
2017-Mar-25 11:31N 25°47' W 080°10'0 0.0
2017-Mar-25 10:31N 25°47' W 080°10'611.4
2017-Mar-25 10:00N 25°42' W 080°06'612.8 090 / 151021.9 5.4 19.015.725.0
2017-Mar-25 09:31N 25°47' W 080°10'1 0.7
2017-Mar-25 08:34N 25°47' W 080°11'8 7.9
2017-Mar-25 07:33N 25°47' W 080°02'10 9.8
2017-Mar-25 06:33N 25°52' W 079°53'1414.4
2017-Mar-25 05:33N 25°59' W 079°39'1514.7
2017-Mar-25 04:33N 26°08' W 079°26'31216.8
2017-Mar-24 10:00N 24°00' W 074°12'52714.6 010 / 301019.9 5.4 22.017.225.0
2017-Mar-22 22:00N 18°48' W 066°36'1419.9 080 / 141013.9 5.4 25.022.026.0
2017-Mar-22 21:17N 18°42' W 066°22'1419.7
2017-Mar-22 20:33N 18°33' W 066°11'7 6.7
2017-Mar-22 19:33N 18°28' W 066°07'0 0.0
2017-Mar-22 18:33N 18°28' W 066°07'0 0.0
2017-Mar-22 17:33N 18°28' W 066°07'0 0.0
2017-Mar-22 16:33N 18°28' W 066°07'0 0.0
2017-Mar-22 15:33N 18°28' W 066°07'0 0.0
2017-Mar-22 14:33N 18°28' W 066°07'0 0.0
2017-Mar-22 13:33N 18°28' W 066°07'0 0.0
2017-Mar-22 12:33N 18°28' W 066°07'0 0.0
2017-Mar-22 11:30N 18°28' W 066°07'4 3.9
2017-Mar-22 10:33N 18°31' W 066°08'8 8.5
2017-Mar-22 09:33N 18°38' W 066°02'64 6.8
2017-Mar-22 00:03N 18°14' W 064°59'59 4.3
2017-Mar-21 10:33N 18°39' W 065°55'1919.2
2017-Mar-21 09:33N 18°44' W 066°14'  
Track history (hours):
 
Tides and Currents Weather Stations Pressure Air Temp Water Temp Dewpoint Dewpoint Depression Visibility Wind Speed Wind Dir Waves Ship Positions

Carnival Glory

Operator: Carnival Cruise Lines

Last reported at 2017-Mar-30 14:31 UTC. Time now 2017-Mar-30 14:36 UTC.
Position N 20°29' W 086°59'.

Type: Passenger vessel. MMSI: 357659000.

Date/timePositionNaut miles runAvg speedWind from/ knotsBaromVisibWave heightAir tempDewpointWater temp
2017-Mar-30 14:31N 20°29' W 086°59'0 0.0
2017-Mar-30 13:31N 20°29' W 086°59'0 0.0
2017-Mar-30 12:31N 20°29' W 086°59'0 0.0
2017-Mar-30 11:33N 20°29' W 086°59'3 2.9
2017-Mar-30 10:33N 20°29' W 087°02'209 8.2
2017-Mar-29 09:00N 17°06' W 087°54'346 9.9 090 / 201010.9 5.4 26.021.526.0
2017-Mar-27 22:00N 18°48' W 082°06'48 3.5 050 / 151012.9 5.4 24.019.426.0
2017-Mar-27 08:00N 19°36' W 082°00'35911.0 070 / 181012.9 5.4 25.018.826.0
2017-Mar-25 23:33N 25°16' W 079°59'1615.9
2017-Mar-25 22:33N 25°32' W 079°56'1413.8
2017-Mar-25 21:34N 25°44' W 080°03'7 6.9
2017-Mar-25 20:31N 25°47' W 080°10'0 0.0
2017-Mar-25 19:31N 25°47' W 080°10'0 0.0
2017-Mar-25 18:31N 25°47' W 080°10'0 0.0
2017-Mar-25 17:31N 25°47' W 080°10'0 0.0
2017-Mar-25 16:31N 25°47' W 080°10'0 0.0
2017-Mar-25 15:31N 25°47' W 080°10'0 0.0
2017-Mar-25 14:31N 25°47' W 080°10'0 0.0
2017-Mar-25 13:31N 25°47' W 080°10'0 0.0
2017-Mar-25 12:31N 25°47' W 080°10'0 0.0
2017-Mar-25 11:31N 25°47' W 080°10'0 0.0
2017-Mar-25 10:31N 25°47' W 080°10'611.4
2017-Mar-25 10:00N 25°42' W 080°06'612.8 090 / 151021.9 5.4 19.015.725.0
2017-Mar-25 09:31N 25°47' W 080°10'1 0.7
2017-Mar-25 08:34N 25°47' W 080°11'8 7.9
2017-Mar-25 07:33N 25°47' W 080°02'10 9.8
2017-Mar-25 06:33N 25°52' W 079°53'1414.4
2017-Mar-25 05:33N 25°59' W 079°39'1514.7
2017-Mar-25 04:33N 26°08' W 079°26'31216.8
2017-Mar-24 10:00N 24°00' W 074°12'52714.6 010 / 301019.9 5.4 22.017.225.0
2017-Mar-22 22:00N 18°48' W 066°36'1419.9 080 / 141013.9 5.4 25.022.026.0
2017-Mar-22 21:17N 18°42' W 066°22'1419.7
2017-Mar-22 20:33N 18°33' W 066°11'7 6.7
2017-Mar-22 19:33N 18°28' W 066°07'0 0.0
2017-Mar-22 18:33N 18°28' W 066°07'0 0.0
2017-Mar-22 17:33N 18°28' W 066°07'0 0.0
2017-Mar-22 16:33N 18°28' W 066°07'0 0.0
2017-Mar-22 15:33N 18°28' W 066°07'0 0.0
2017-Mar-22 14:33N 18°28' W 066°07'0 0.0
2017-Mar-22 13:33N 18°28' W 066°07'0 0.0
2017-Mar-22 12:33N 18°28' W 066°07'0 0.0
2017-Mar-22 11:30N 18°28' W 066°07'4 3.9
2017-Mar-22 10:33N 18°31' W 066°08'8 8.5
2017-Mar-22 09:33N 18°38' W 066°02'64 6.8
2017-Mar-22 00:03N 18°14' W 064°59'59 4.3
2017-Mar-21 10:33N 18°39' W 065°55'1919.2
2017-Mar-21 09:33N 18°44' W 066°14'  

Dump ship's entire track history